Disclaimer

Please do not use the information listed here in-flight or in-navigation, as they are not provided to us by the airports but are provided by volunteers, so they might be outdated.

Search


Regions


Airport information page

Radio informations:
Tower (TWR) - 118.7 MHz
Approach (APP) - 120.2 MHz

Airport informations:
Latitude: 52° 42' 07.12" N
Longitude: 008° 55' 29.34" W
Elevation: 46 feet - 14 meters
Operating hours: 24 hour operations
Operating agency: Civil government, landing fees and diplomatic clearance may be required
Timezone: UTC 0(+1DT) - Last Sunday in March to last Sunday in October
Fuel: N/A

Runway information:
04/22 - 6463 x 198 feet< - >1970 x 60 meters
06/24 - 10495 x 148 feet< - >3199 x 45 meters
08/26 - 4805 x 148 feet< - >1465 x 45 meters
13/31 - 5643 x 148 feet< - >1720 x 45 meters
18/36 - 5619 x 148 feet< - >1713 x 45 meters

Recent METARs:
EINN 202300Z 02010KT 9999 FEW018CB SCT021 BKN035 05/03 Q1010 NOSIG
EINN 202330Z 03013KT 9999 FEW016 BKN090 05/03 Q1009 NOSIG
EINN 210000Z 03014KT 9999 FEW020 05/02 Q1009 NOSIG

Airport on the map: